sensor_id;sensor_type;location;lat;lon;timestamp;temperature;humidity
23259;DHT22;11798;51.528;7.240;2023-02-28T00:00:17;0.20;99.90
23259;DHT22;11798;51.528;7.240;2023-02-28T00:02:43;0.20;99.90
23259;DHT22;11798;51.528;7.240;2023-02-28T00:05:11;0.20;99.90
23259;DHT22;11798;51.528;7.240;2023-02-28T00:07:38;0.20;99.90
23259;DHT22;11798;51.528;7.240;2023-02-28T00:10:06;0.30;99.90
23259;DHT22;11798;51.528;7.240;2023-02-28T00:12:33;0.20;99.90
23259;DHT22;11798;51.528;7.240;2023-02-28T00:14:59;0.20;99.90
23259;DHT22;11798;51.528;7.240;2023-02-28T00:19:53;0.30;99.90
23259;DHT22;11798;51.528;7.240;2023-02-28T00:22:20;0.30;99.90
23259;DHT22;11798;51.528;7.240;2023-02-28T00:24:46;0.30;99.90
23259;DHT22;11798;51.528;7.240;2023-02-28T00:27:13;0.20;99.90
23259;DHT22;11798;51.528;7.240;2023-02-28T00:29:38;0.30;99.90
23259;DHT22;11798;51.528;7.240;2023-02-28T00:32:05;0.30;99.90
23259;DHT22;11798;51.528;7.240;2023-02-28T00:34:31;0.30;99.90
23259;DHT22;11798;51.528;7.240;2023-02-28T00:37:07;0.30;99.90
23259;DHT22;11798;51.528;7.240;2023-02-28T00:39:38;0.30;99.90
23259;DHT22;11798;51.528;7.240;2023-02-28T00:42:05;0.30;99.90
23259;DHT22;11798;51.528;7.240;2023-02-28T00:44:31;0.30;99.90
23259;DHT22;11798;51.528;7.240;2023-02-28T00:46:57;0.40;99.90
23259;DHT22;11798;51.528;7.240;2023-02-28T00:49:23;0.30;99.90
23259;DHT22;11798;51.528;7.240;2023-02-28T00:51:49;0.30;99.90
23259;DHT22;11798;51.528;7.240;2023-02-28T00:54:17;0.30;99.90
23259;DHT22;11798;51.528;7.240;2023-02-28T00:56:43;0.20;99.90
23259;DHT22;11798;51.528;7.240;2023-02-28T00:59:09;0.20;99.90
23259;DHT22;11798;51.528;7.240;2023-02-28T01:01:37;0.20;99.90
23259;DHT22;11798;51.528;7.240;2023-02-28T01:04:03;0.20;99.90
23259;DHT22;11798;51.528;7.240;2023-02-28T01:06:29;0.20;99.90
23259;DHT22;11798;51.528;7.240;2023-02-28T01:08:54;0.10;99.90
23259;DHT22;11798;51.528;7.240;2023-02-28T01:11:20;0.10;99.90
23259;DHT22;11798;51.528;7.240;2023-02-28T01:13:46;0.10;99.90
23259;DHT22;11798;51.528;7.240;2023-02-28T01:16:12;0.00;99.90
23259;DHT22;11798;51.528;7.240;2023-02-28T01:18:38;0.10;99.90
23259;DHT22;11798;51.528;7.240;2023-02-28T01:21:05;0.00;99.90
23259;DHT22;11798;51.528;7.240;2023-02-28T01:23:31;0.10;99.90
23259;DHT22;11798;51.528;7.240;2023-02-28T01:26:04;0.10;99.90
23259;DHT22;11798;51.528;7.240;2023-02-28T01:28:30;0.10;99.90
23259;DHT22;11798;51.528;7.240;2023-02-28T01:30:55;0.10;99.90
23259;DHT22;11798;51.528;7.240;2023-02-28T01:33:21;0.10;99.90
23259;DHT22;11798;51.528;7.240;2023-02-28T01:35:46;0.10;99.90
23259;DHT22;11798;51.528;7.240;2023-02-28T01:38:12;0.10;99.90
23259;DHT22;11798;51.528;7.240;2023-02-28T01:40:38;0.10;99.90
23259;DHT22;11798;51.528;7.240;2023-02-28T01:43:10;0.10;99.90
23259;DHT22;11798;51.528;7.240;2023-02-28T01:45:42;0.10;99.90
23259;DHT22;11798;51.528;7.240;2023-02-28T01:48:08;0.10;99.90
23259;DHT22;11798;51.528;7.240;2023-02-28T01:50:37;0.10;99.90
23259;DHT22;11798;51.528;7.240;2023-02-28T01:53:07;0.10;99.90
23259;DHT22;11798;51.528;7.240;2023-02-28T01:55:34;0.00;99.90
23259;DHT22;11798;51.528;7.240;2023-02-28T01:58:02;0.00;99.90
23259;DHT22;11798;51.528;7.240;2023-02-28T02:00:30;0.00;99.90
23259;DHT22;11798;51.528;7.240;2023-02-28T02:03:04;-0.10;99.90
23259;DHT22;11798;51.528;7.240;2023-02-28T02:05:31;-0.10;99.90
23259;DHT22;11798;51.528;7.240;2023-02-28T02:08:03;-0.10;99.90
23259;DHT22;11798;51.528;7.240;2023-02-28T02:10:46;-0.10;99.90
23259;DHT22;11798;51.528;7.240;2023-02-28T02:13:38;-0.10;99.90
23259;DHT22;11798;51.528;7.240;2023-02-28T02:19:01;-0.30;99.90
23259;DHT22;11798;51.528;7.240;2023-02-28T02:22:02;-0.40;99.90
23259;DHT22;11798;51.528;7.240;2023-02-28T02:24:55;-0.40;99.90
23259;DHT22;11798;51.528;7.240;2023-02-28T02:35:12;-0.60;99.90
23259;DHT22;11798;51.528;7.240;2023-02-28T02:41:14;-0.70;99.90
23259;DHT22;11798;51.528;7.240;2023-02-28T02:43:49;-0.60;99.90
23259;DHT22;11798;51.528;7.240;2023-02-28T02:46:21;-0.70;99.90
23259;DHT22;11798;51.528;7.240;2023-02-28T02:48:48;-0.70;99.90
23259;DHT22;11798;51.528;7.240;2023-02-28T02:51:18;-0.70;99.90
23259;DHT22;11798;51.528;7.240;2023-02-28T02:53:58;-0.70;99.90
23259;DHT22;11798;51.528;7.240;2023-02-28T02:56:28;-0.70;99.90
23259;DHT22;11798;51.528;7.240;2023-02-28T02:58:58;-0.70;99.90
23259;DHT22;11798;51.528;7.240;2023-02-28T03:01:26;-0.70;99.90
23259;DHT22;11798;51.528;7.240;2023-02-28T03:03:56;-0.70;99.90
23259;DHT22;11798;51.528;7.240;2023-02-28T03:06:22;-0.80;99.90
23259;DHT22;11798;51.528;7.240;2023-02-28T03:08:48;-0.80;99.90
23259;DHT22;11798;51.528;7.240;2023-02-28T03:11:15;-0.80;99.90
23259;DHT22;11798;51.528;7.240;2023-02-28T03:32:53;-0.90;99.90
23259;DHT22;11798;51.528;7.240;2023-02-28T03:35:27;-0.90;99.90
23259;DHT22;11798;51.528;7.240;2023-02-28T03:38:05;-0.90;99.90
23259;DHT22;11798;51.528;7.240;2023-02-28T03:40:36;-1.00;99.90
23259;DHT22;11798;51.528;7.240;2023-02-28T03:43:08;-0.90;99.90
23259;DHT22;11798;51.528;7.240;2023-02-28T03:45:37;-0.90;99.90
23259;DHT22;11798;51.528;7.240;2023-02-28T03:48:27;-1.00;99.90
23259;DHT22;11798;51.528;7.240;2023-02-28T03:50:58;-1.00;99.90
23259;DHT22;11798;51.528;7.240;2023-02-28T03:53:32;-0.90;99.90
23259;DHT22;11798;51.528;7.240;2023-02-28T03:56:11;-1.00;99.90
23259;DHT22;11798;51.528;7.240;2023-02-28T03:58:57;-1.00;99.90
23259;DHT22;11798;51.528;7.240;2023-02-28T04:01:30;-1.00;99.90
23259;DHT22;11798;51.528;7.240;2023-02-28T04:03:57;-1.00;99.90
23259;DHT22;11798;51.528;7.240;2023-02-28T04:06:24;-1.00;99.90
23259;DHT22;11798;51.528;7.240;2023-02-28T04:08:50;-1.00;99.90
23259;DHT22;11798;51.528;7.240;2023-02-28T04:13:44;-1.10;99.90
23259;DHT22;11798;51.528;7.240;2023-02-28T04:16:10;-1.10;99.90
23259;DHT22;11798;51.528;7.240;2023-02-28T04:18:41;-1.10;99.90
23259;DHT22;11798;51.528;7.240;2023-02-28T04:21:08;-1.10;99.90
23259;DHT22;11798;51.528;7.240;2023-02-28T04:23:34;-1.10;99.90
23259;DHT22;11798;51.528;7.240;2023-02-28T04:26:00;-1.10;99.90
23259;DHT22;11798;51.528;7.240;2023-02-28T04:28:26;-1.20;99.90
23259;DHT22;11798;51.528;7.240;2023-02-28T04:31:04;-1.20;99.90
23259;DHT22;11798;51.528;7.240;2023-02-28T04:33:32;-1.20;99.90
23259;DHT22;11798;51.528;7.240;2023-02-28T04:35:59;-1.20;99.90
23259;DHT22;11798;51.528;7.240;2023-02-28T04:38:25;-1.20;99.90
23259;DHT22;11798;51.528;7.240;2023-02-28T04:40:50;-1.20;99.90
23259;DHT22;11798;51.528;7.240;2023-02-28T04:43:16;-1.20;99.90
23259;DHT22;11798;51.528;7.240;2023-02-28T04:45:42;-1.20;99.90
23259;DHT22;11798;51.528;7.240;2023-02-28T04:48:08;-1.30;99.90
23259;DHT22;11798;51.528;7.240;2023-02-28T04:50:33;-1.30;99.90
23259;DHT22;11798;51.528;7.240;2023-02-28T04:52:59;-1.30;99.90
23259;DHT22;11798;51.528;7.240;2023-02-28T04:55:25;-1.40;99.90
23259;DHT22;11798;51.528;7.240;2023-02-28T04:57:50;-1.40;99.90
23259;DHT22;11798;51.528;7.240;2023-02-28T05:00:16;-1.40;99.90
23259;DHT22;11798;51.528;7.240;2023-02-28T05:02:42;-1.40;99.90
23259;DHT22;11798;51.528;7.240;2023-02-28T05:05:08;-1.40;99.90
23259;DHT22;11798;51.528;7.240;2023-02-28T05:07:34;-1.50;99.90
23259;DHT22;11798;51.528;7.240;2023-02-28T05:09:59;-1.50;99.90
23259;DHT22;11798;51.528;7.240;2023-02-28T05:12:25;-1.50;99.90
23259;DHT22;11798;51.528;7.240;2023-02-28T05:14:51;-1.50;99.90
23259;DHT22;11798;51.528;7.240;2023-02-28T05:17:16;-1.50;99.90
23259;DHT22;11798;51.528;7.240;2023-02-28T05:19:42;-1.50;99.90
23259;DHT22;11798;51.528;7.240;2023-02-28T05:22:14;-1.60;99.90
23259;DHT22;11798;51.528;7.240;2023-02-28T05:24:42;-1.60;99.90
23259;DHT22;11798;51.528;7.240;2023-02-28T05:27:08;-1.70;99.90
23259;DHT22;11798;51.528;7.240;2023-02-28T05:29:33;-1.60;99.90
23259;DHT22;11798;51.528;7.240;2023-02-28T05:31:59;-1.60;99.90
23259;DHT22;11798;51.528;7.240;2023-02-28T05:34:25;-1.60;99.90
23259;DHT22;11798;51.528;7.240;2023-02-28T05:36:50;-1.60;99.90
23259;DHT22;11798;51.528;7.240;2023-02-28T05:39:16;-1.60;99.90
23259;DHT22;11798;51.528;7.240;2023-02-28T05:41:42;-1.70;99.90
23259;DHT22;11798;51.528;7.240;2023-02-28T05:44:09;-1.70;99.90
23259;DHT22;11798;51.528;7.240;2023-02-28T05:46:35;-1.70;99.90
23259;DHT22;11798;51.528;7.240;2023-02-28T05:49:01;-1.70;99.90
23259;DHT22;11798;51.528;7.240;2023-02-28T05:51:27;-1.70;99.90
23259;DHT22;11798;51.528;7.240;2023-02-28T05:53:52;-1.70;99.90
23259;DHT22;11798;51.528;7.240;2023-02-28T05:56:18;-1.70;99.90
23259;DHT22;11798;51.528;7.240;2023-02-28T05:58:44;-1.70;99.90
23259;DHT22;11798;51.528;7.240;2023-02-28T06:01:36;-1.70;99.90
23259;DHT22;11798;51.528;7.240;2023-02-28T06:04:03;-1.80;99.90
23259;DHT22;11798;51.528;7.240;2023-02-28T06:06:29;-1.80;99.90
23259;DHT22;11798;51.528;7.240;2023-02-28T06:08:56;-1.80;99.90
23259;DHT22;11798;51.528;7.240;2023-02-28T06:11:22;-1.80;99.90
23259;DHT22;11798;51.528;7.240;2023-02-28T06:13:54;-1.80;99.90
23259;DHT22;11798;51.528;7.240;2023-02-28T06:16:21;-1.80;99.90
23259;DHT22;11798;51.528;7.240;2023-02-28T06:18:47;-1.90;99.90
23259;DHT22;11798;51.528;7.240;2023-02-28T06:21:13;-1.80;99.90
23259;DHT22;11798;51.528;7.240;2023-02-28T06:23:38;-1.90;99.90
23259;DHT22;11798;51.528;7.240;2023-02-28T06:26:04;-2.00;99.90
23259;DHT22;11798;51.528;7.240;2023-02-28T06:28:31;-1.90;99.90
23259;DHT22;11798;51.528;7.240;2023-02-28T06:30:57;-1.90;99.90
23259;DHT22;11798;51.528;7.240;2023-02-28T06:33:23;-1.90;99.90
23259;DHT22;11798;51.528;7.240;2023-02-28T06:35:52;-1.90;99.90
23259;DHT22;11798;51.528;7.240;2023-02-28T06:38:18;-1.90;99.90
23259;DHT22;11798;51.528;7.240;2023-02-28T06:40:44;-1.90;99.90
23259;DHT22;11798;51.528;7.240;2023-02-28T06:43:10;-1.90;99.90
23259;DHT22;11798;51.528;7.240;2023-02-28T06:45:42;-1.90;99.90
23259;DHT22;11798;51.528;7.240;2023-02-28T06:48:08;-1.90;99.90
23259;DHT22;11798;51.528;7.240;2023-02-28T06:50:34;-1.90;99.90
23259;DHT22;11798;51.528;7.240;2023-02-28T06:52:59;-1.80;99.90
23259;DHT22;11798;51.528;7.240;2023-02-28T06:55:25;-1.80;99.90
23259;DHT22;11798;51.528;7.240;2023-02-28T06:57:51;-1.80;99.90
23259;DHT22;11798;51.528;7.240;2023-02-28T07:00:17;-1.80;99.90
23259;DHT22;11798;51.528;7.240;2023-02-28T07:02:43;-1.80;99.90
23259;DHT22;11798;51.528;7.240;2023-02-28T07:05:09;-1.70;99.90
23259;DHT22;11798;51.528;7.240;2023-02-28T07:07:34;-1.70;99.90
23259;DHT22;11798;51.528;7.240;2023-02-28T07:10:01;-1.70;99.90
23259;DHT22;11798;51.528;7.240;2023-02-28T07:12:27;-1.60;99.90
23259;DHT22;11798;51.528;7.240;2023-02-28T07:14:53;-1.60;99.90
23259;DHT22;11798;51.528;7.240;2023-02-28T07:17:21;-1.60;99.90
23259;DHT22;11798;51.528;7.240;2023-02-28T07:19:46;-1.50;99.90
23259;DHT22;11798;51.528;7.240;2023-02-28T07:22:12;-1.50;99.90
23259;DHT22;11798;51.528;7.240;2023-02-28T07:24:38;-1.40;99.90
23259;DHT22;11798;51.528;7.240;2023-02-28T07:27:03;-1.40;99.90
23259;DHT22;11798;51.528;7.240;2023-02-28T07:29:29;-1.30;99.90
23259;DHT22;11798;51.528;7.240;2023-02-28T07:31:55;-1.20;99.90
23259;DHT22;11798;51.528;7.240;2023-02-28T07:34:21;-1.10;99.90
23259;DHT22;11798;51.528;7.240;2023-02-28T07:36:47;-1.10;99.90
23259;DHT22;11798;51.528;7.240;2023-02-28T07:39:13;-1.00;99.90
23259;DHT22;11798;51.528;7.240;2023-02-28T07:41:39;-1.00;99.90
23259;DHT22;11798;51.528;7.240;2023-02-28T07:44:10;-0.90;99.90
23259;DHT22;11798;51.528;7.240;2023-02-28T07:46:35;-0.80;99.90
23259;DHT22;11798;51.528;7.240;2023-02-28T07:49:02;-0.70;99.90
23259;DHT22;11798;51.528;7.240;2023-02-28T07:51:29;-0.70;99.90
23259;DHT22;11798;51.528;7.240;2023-02-28T07:53:55;-0.60;99.90
23259;DHT22;11798;51.528;7.240;2023-02-28T07:56:21;-0.50;99.90
23259;DHT22;11798;51.528;7.240;2023-02-28T07:58:46;-0.50;99.90
23259;DHT22;11798;51.528;7.240;2023-02-28T08:01:12;-0.50;99.90
23259;DHT22;11798;51.528;7.240;2023-02-28T08:03:39;-0.40;99.90
23259;DHT22;11798;51.528;7.240;2023-02-28T08:06:06;-0.40;99.90
23259;DHT22;11798;51.528;7.240;2023-02-28T08:08:32;-0.30;99.90
23259;DHT22;11798;51.528;7.240;2023-02-28T08:11:02;-0.20;99.90
23259;DHT22;11798;51.528;7.240;2023-02-28T08:13:29;-0.20;99.90
23259;DHT22;11798;51.528;7.240;2023-02-28T08:15:56;-0.10;99.90
23259;DHT22;11798;51.528;7.240;2023-02-28T08:18:22;-0.10;99.90
23259;DHT22;11798;51.528;7.240;2023-02-28T08:20:48;0.10;99.90
23259;DHT22;11798;51.528;7.240;2023-02-28T08:23:14;0.10;99.90
23259;DHT22;11798;51.528;7.240;2023-02-28T08:25:40;0.10;99.90
23259;DHT22;11798;51.528;7.240;2023-02-28T08:28:06;0.20;99.90
23259;DHT22;11798;51.528;7.240;2023-02-28T08:30:31;0.40;99.90
23259;DHT22;11798;51.528;7.240;2023-02-28T08:32:57;0.40;99.90
23259;DHT22;11798;51.528;7.240;2023-02-28T08:35:23;0.50;99.90
23259;DHT22;11798;51.528;7.240;2023-02-28T08:37:49;0.60;99.90
23259;DHT22;11798;51.528;7.240;2023-02-28T08:40:15;0.60;99.90
23259;DHT22;11798;51.528;7.240;2023-02-28T08:42:47;0.80;99.90
23259;DHT22;11798;51.528;7.240;2023-02-28T08:45:13;0.90;99.90
23259;DHT22;11798;51.528;7.240;2023-02-28T08:47:40;0.90;99.90
23259;DHT22;11798;51.528;7.240;2023-02-28T08:50:06;0.90;99.90
23259;DHT22;11798;51.528;7.240;2023-02-28T08:52:32;0.90;99.90
23259;DHT22;11798;51.528;7.240;2023-02-28T08:54:58;1.00;99.90
23259;DHT22;11798;51.528;7.240;2023-02-28T08:57:23;1.10;99.90
23259;DHT22;11798;51.528;7.240;2023-02-28T08:59:52;1.10;99.90
23259;DHT22;11798;51.528;7.240;2023-02-28T09:02:18;1.10;99.90
23259;DHT22;11798;51.528;7.240;2023-02-28T09:04:44;1.20;99.90
23259;DHT22;11798;51.528;7.240;2023-02-28T09:07:12;1.10;99.90
23259;DHT22;11798;51.528;7.240;2023-02-28T09:09:38;1.30;99.90
23259;DHT22;11798;51.528;7.240;2023-02-28T09:12:25;1.40;99.90
23259;DHT22;11798;51.528;7.240;2023-02-28T09:14:51;1.50;99.90
23259;DHT22;11798;51.528;7.240;2023-02-28T09:17:18;1.70;99.90
23259;DHT22;11798;51.528;7.240;2023-02-28T09:19:44;1.80;99.90
23259;DHT22;11798;51.528;7.240;2023-02-28T09:22:10;1.80;99.90
23259;DHT22;11798;51.528;7.240;2023-02-28T09:24:38;1.90;99.90
23259;DHT22;11798;51.528;7.240;2023-02-28T09:27:05;2.00;99.90
23259;DHT22;11798;51.528;7.240;2023-02-28T09:29:32;2.10;99.90
23259;DHT22;11798;51.528;7.240;2023-02-28T09:31:58;2.10;99.90
23259;DHT22;11798;51.528;7.240;2023-02-28T09:34:27;2.10;99.90
23259;DHT22;11798;51.528;7.240;2023-02-28T09:36:53;2.20;99.90
23259;DHT22;11798;51.528;7.240;2023-02-28T09:39:21;2.30;99.90
23259;DHT22;11798;51.528;7.240;2023-02-28T09:41:49;2.50;99.90
23259;DHT22;11798;51.528;7.240;2023-02-28T09:44:38;2.40;99.90
23259;DHT22;11798;51.528;7.240;2023-02-28T09:49:52;2.50;99.90
23259;DHT22;11798;51.528;7.240;2023-02-28T09:52:26;2.60;99.90
23259;DHT22;11798;51.528;7.240;2023-02-28T09:54:53;2.70;99.90
23259;DHT22;11798;51.528;7.240;2023-02-28T10:03:33;2.80;99.90
23259;DHT22;11798;51.528;7.240;2023-02-28T10:06:05;2.90;99.90
23259;DHT22;11798;51.528;7.240;2023-02-28T10:11:20;2.90;99.90
23259;DHT22;11798;51.528;7.240;2023-02-28T10:14:01;2.90;99.90
23259;DHT22;11798;51.528;7.240;2023-02-28T10:16:39;2.90;99.90
23259;DHT22;11798;51.528;7.240;2023-02-28T10:19:17;3.00;99.90
23259;DHT22;11798;51.528;7.240;2023-02-28T10:22:01;3.00;99.90
23259;DHT22;11798;51.528;7.240;2023-02-28T10:24:43;3.10;99.90
23259;DHT22;11798;51.528;7.240;2023-02-28T10:27:19;3.20;99.90
23259;DHT22;11798;51.528;7.240;2023-02-28T10:29:54;3.10;99.90
23259;DHT22;11798;51.528;7.240;2023-02-28T10:32:22;3.10;99.90
23259;DHT22;11798;51.528;7.240;2023-02-28T10:37:23;3.30;99.90
23259;DHT22;11798;51.528;7.240;2023-02-28T10:39:49;3.50;99.90
23259;DHT22;11798;51.528;7.240;2023-02-28T10:42:28;3.40;99.90
23259;DHT22;11798;51.528;7.240;2023-02-28T10:45:14;3.50;99.90
23259;DHT22;11798;51.528;7.240;2023-02-28T10:48:02;3.50;99.90
23259;DHT22;11798;51.528;7.240;2023-02-28T10:55:36;3.80;99.90
23259;DHT22;11798;51.528;7.240;2023-02-28T10:58:02;3.70;99.90
23259;DHT22;11798;51.528;7.240;2023-02-28T11:00:34;3.80;99.90
23259;DHT22;11798;51.528;7.240;2023-02-28T11:03:00;3.80;99.90
23259;DHT22;11798;51.528;7.240;2023-02-28T11:05:30;3.90;99.90
23259;DHT22;11798;51.528;7.240;2023-02-28T11:08:03;3.90;99.90
23259;DHT22;11798;51.528;7.240;2023-02-28T11:10:32;4.00;99.90
23259;DHT22;11798;51.528;7.240;2023-02-28T11:13:00;4.00;99.90
23259;DHT22;11798;51.528;7.240;2023-02-28T11:15:32;3.70;99.90
23259;DHT22;11798;51.528;7.240;2023-02-28T11:18:00;3.80;99.90
23259;DHT22;11798;51.528;7.240;2023-02-28T11:20:29;3.80;99.90
23259;DHT22;11798;51.528;7.240;2023-02-28T11:22:57;3.90;99.90
23259;DHT22;11798;51.528;7.240;2023-02-28T11:25:32;3.90;99.90
23259;DHT22;11798;51.528;7.240;2023-02-28T11:28:04;4.10;99.90
23259;DHT22;11798;51.528;7.240;2023-02-28T11:30:35;4.20;99.90
23259;DHT22;11798;51.528;7.240;2023-02-28T11:33:23;4.20;99.90
23259;DHT22;11798;51.528;7.240;2023-02-28T11:35:50;4.20;99.90
23259;DHT22;11798;51.528;7.240;2023-02-28T11:38:16;4.20;99.90
23259;DHT22;11798;51.528;7.240;2023-02-28T11:46:40;4.40;99.90
23259;DHT22;11798;51.528;7.240;2023-02-28T11:54:54;4.70;99.90
23259;DHT22;11798;51.528;7.240;2023-02-28T12:05:34;4.40;99.90
23259;DHT22;11798;51.528;7.240;2023-02-28T12:08:07;4.60;99.90
23259;DHT22;11798;51.528;7.240;2023-02-28T12:13:36;4.80;99.90
23259;DHT22;11798;51.528;7.240;2023-02-28T12:26:57;4.50;99.90
23259;DHT22;11798;51.528;7.240;2023-02-28T12:29:34;4.70;99.90
23259;DHT22;11798;51.528;7.240;2023-02-28T12:34:49;4.60;99.90
23259;DHT22;11798;51.528;7.240;2023-02-28T12:38:10;4.50;99.90
23259;DHT22;11798;51.528;7.240;2023-02-28T12:40:14;4.50;99.90
23259;DHT22;11798;51.528;7.240;2023-02-28T12:43:05;4.50;99.90
23259;DHT22;11798;51.528;7.240;2023-02-28T12:45:53;4.50;99.90
23259;DHT22;11798;51.528;7.240;2023-02-28T12:48:29;4.60;99.90
23259;DHT22;11798;51.528;7.240;2023-02-28T12:50:57;4.40;99.90
23259;DHT22;11798;51.528;7.240;2023-02-28T12:58:41;4.60;99.90
23259;DHT22;11798;51.528;7.240;2023-02-28T13:11:45;4.70;99.90
23259;DHT22;11798;51.528;7.240;2023-02-28T13:19:37;4.50;99.90
23259;DHT22;11798;51.528;7.240;2023-02-28T13:22:04;4.60;99.90
23259;DHT22;11798;51.528;7.240;2023-02-28T13:34:35;4.60;99.90
23259;DHT22;11798;51.528;7.240;2023-02-28T13:39:50;4.60;99.90
23259;DHT22;11798;51.528;7.240;2023-02-28T13:42:30;4.50;99.90
23259;DHT22;11798;51.528;7.240;2023-02-28T13:47:42;4.60;99.90
23259;DHT22;11798;51.528;7.240;2023-02-28T13:50:33;4.60;99.90
23259;DHT22;11798;51.528;7.240;2023-02-28T14:01:47;4.50;99.90
23259;DHT22;11798;51.528;7.240;2023-02-28T14:07:23;4.60;99.90
23259;DHT22;11798;51.528;7.240;2023-02-28T14:10:01;4.60;99.90
23259;DHT22;11798;51.528;7.240;2023-02-28T14:18:29;4.60;99.90
23259;DHT22;11798;51.528;7.240;2023-02-28T14:31:44;4.70;99.90
23259;DHT22;11798;51.528;7.240;2023-02-28T14:37:29;4.70;99.90
23259;DHT22;11798;51.528;7.240;2023-02-28T14:39:57;4.50;99.90
23259;DHT22;11798;51.528;7.240;2023-02-28T14:42:35;4.60;99.90
23259;DHT22;11798;51.528;7.240;2023-02-28T14:45:04;4.60;99.90
23259;DHT22;11798;51.528;7.240;2023-02-28T14:47:35;4.60;99.90
23259;DHT22;11798;51.528;7.240;2023-02-28T14:50:03;4.60;99.90
23259;DHT22;11798;51.528;7.240;2023-02-28T14:52:31;4.60;99.90
23259;DHT22;11798;51.528;7.240;2023-02-28T14:55:05;4.60;99.90
23259;DHT22;11798;51.528;7.240;2023-02-28T14:57:41;4.60;99.90
23259;DHT22;11798;51.528;7.240;2023-02-28T15:00:16;4.60;99.90
23259;DHT22;11798;51.528;7.240;2023-02-28T15:02:42;4.60;99.90
23259;DHT22;11798;51.528;7.240;2023-02-28T15:07:47;4.70;99.90
23259;DHT22;11798;51.528;7.240;2023-02-28T15:15:19;4.90;99.90
23259;DHT22;11798;51.528;7.240;2023-02-28T15:17:49;4.90;99.90
23259;DHT22;11798;51.528;7.240;2023-02-28T15:20:18;4.90;99.90
23259;DHT22;11798;51.528;7.240;2023-02-28T15:22:45;4.90;99.90
23259;DHT22;11798;51.528;7.240;2023-02-28T15:25:15;5.00;99.90
23259;DHT22;11798;51.528;7.240;2023-02-28T15:27:48;5.00;99.90
23259;DHT22;11798;51.528;7.240;2023-02-28T15:30:26;5.00;99.90
23259;DHT22;11798;51.528;7.240;2023-02-28T15:35:37;4.90;99.90
23259;DHT22;11798;51.528;7.240;2023-02-28T15:38:26;5.00;99.90
23259;DHT22;11798;51.528;7.240;2023-02-28T15:40:54;4.90;99.90
23259;DHT22;11798;51.528;7.240;2023-02-28T15:43:33;5.00;99.90
23259;DHT22;11798;51.528;7.240;2023-02-28T15:48:37;5.40;99.90
23259;DHT22;11798;51.528;7.240;2023-02-28T15:51:20;5.40;99.90
23259;DHT22;11798;51.528;7.240;2023-02-28T15:53:56;5.40;99.90
23259;DHT22;11798;51.528;7.240;2023-02-28T15:56:32;5.50;99.90
23259;DHT22;11798;51.528;7.240;2023-02-28T15:59:03;5.90;99.90
23259;DHT22;11798;51.528;7.240;2023-02-28T16:01:35;5.70;99.90
23259;DHT22;11798;51.528;7.240;2023-02-28T16:04:17;5.90;99.90
23259;DHT22;11798;51.528;7.240;2023-02-28T16:07:00;6.00;99.90
23259;DHT22;11798;51.528;7.240;2023-02-28T16:09:26;6.00;99.90
23259;DHT22;11798;51.528;7.240;2023-02-28T16:11:55;6.00;99.90
23259;DHT22;11798;51.528;7.240;2023-02-28T16:14:22;6.20;99.90
23259;DHT22;11798;51.528;7.240;2023-02-28T16:16:56;6.30;99.90
23259;DHT22;11798;51.528;7.240;2023-02-28T16:19:23;6.00;99.90
23259;DHT22;11798;51.528;7.240;2023-02-28T16:21:49;5.80;99.90
23259;DHT22;11798;51.528;7.240;2023-02-28T16:24:15;5.50;99.90
23259;DHT22;11798;51.528;7.240;2023-02-28T16:26:44;5.30;99.90
23259;DHT22;11798;51.528;7.240;2023-02-28T16:29:15;5.10;99.90
23259;DHT22;11798;51.528;7.240;2023-02-28T16:31:43;4.90;99.90
23259;DHT22;11798;51.528;7.240;2023-02-28T16:34:09;4.70;99.90
23259;DHT22;11798;51.528;7.240;2023-02-28T16:36:35;4.60;99.90
23259;DHT22;11798;51.528;7.240;2023-02-28T16:39:00;4.50;99.90
23259;DHT22;11798;51.528;7.240;2023-02-28T16:41:28;4.40;99.90
23259;DHT22;11798;51.528;7.240;2023-02-28T16:43:56;4.30;99.90
23259;DHT22;11798;51.528;7.240;2023-02-28T16:46:29;4.30;99.90
23259;DHT22;11798;51.528;7.240;2023-02-28T16:48:55;4.30;99.90
23259;DHT22;11798;51.528;7.240;2023-02-28T16:51:22;4.30;99.90
23259;DHT22;11798;51.528;7.240;2023-02-28T16:53:47;4.20;99.90
23259;DHT22;11798;51.528;7.240;2023-02-28T16:56:24;4.10;99.90
23259;DHT22;11798;51.528;7.240;2023-02-28T16:58:51;4.10;99.90
23259;DHT22;11798;51.528;7.240;2023-02-28T17:01:18;4.10;99.90
23259;DHT22;11798;51.528;7.240;2023-02-28T17:03:47;4.00;99.90
23259;DHT22;11798;51.528;7.240;2023-02-28T17:06:19;4.00;99.90
23259;DHT22;11798;51.528;7.240;2023-02-28T17:08:45;4.00;99.90
23259;DHT22;11798;51.528;7.240;2023-02-28T17:11:11;4.00;99.90
23259;DHT22;11798;51.528;7.240;2023-02-28T17:13:37;3.90;99.90
23259;DHT22;11798;51.528;7.240;2023-02-28T17:16:02;3.90;99.90
23259;DHT22;11798;51.528;7.240;2023-02-28T17:18:28;3.80;99.90
23259;DHT22;11798;51.528;7.240;2023-02-28T17:20:59;3.80;99.90
23259;DHT22;11798;51.528;7.240;2023-02-28T17:23:25;3.70;99.90
23259;DHT22;11798;51.528;7.240;2023-02-28T17:25:51;3.60;99.90
23259;DHT22;11798;51.528;7.240;2023-02-28T17:28:21;3.60;99.90
23259;DHT22;11798;51.528;7.240;2023-02-28T17:30:47;3.50;99.90
23259;DHT22;11798;51.528;7.240;2023-02-28T17:33:14;3.60;99.90
23259;DHT22;11798;51.528;7.240;2023-02-28T17:35:40;3.50;99.90
23259;DHT22;11798;51.528;7.240;2023-02-28T17:38:15;3.50;99.90
23259;DHT22;11798;51.528;7.240;2023-02-28T17:40:41;3.50;99.90
23259;DHT22;11798;51.528;7.240;2023-02-28T17:43:07;3.40;99.90
23259;DHT22;11798;51.528;7.240;2023-02-28T17:45:32;3.30;99.90
23259;DHT22;11798;51.528;7.240;2023-02-28T17:48:00;3.30;99.90
23259;DHT22;11798;51.528;7.240;2023-02-28T17:50:26;3.30;99.90
23259;DHT22;11798;51.528;7.240;2023-02-28T17:52:52;3.30;99.90
23259;DHT22;11798;51.528;7.240;2023-02-28T17:55:18;3.30;99.90
23259;DHT22;11798;51.528;7.240;2023-02-28T17:57:46;3.30;99.90
23259;DHT22;11798;51.528;7.240;2023-02-28T18:00:14;3.20;99.90
23259;DHT22;11798;51.528;7.240;2023-02-28T18:02:41;3.20;99.90
23259;DHT22;11798;51.528;7.240;2023-02-28T18:05:08;3.10;99.90
23259;DHT22;11798;51.528;7.240;2023-02-28T18:07:35;3.10;99.90
23259;DHT22;11798;51.528;7.240;2023-02-28T18:10:01;3.10;99.90
23259;DHT22;11798;51.528;7.240;2023-02-28T18:12:28;3.00;99.90
23259;DHT22;11798;51.528;7.240;2023-02-28T18:14:54;3.00;99.90
23259;DHT22;11798;51.528;7.240;2023-02-28T18:17:19;2.90;99.90
23259;DHT22;11798;51.528;7.240;2023-02-28T18:19:46;2.90;99.90
23259;DHT22;11798;51.528;7.240;2023-02-28T18:22:11;2.80;99.90
23259;DHT22;11798;51.528;7.240;2023-02-28T18:24:37;2.60;99.90
23259;DHT22;11798;51.528;7.240;2023-02-28T18:27:03;2.60;99.90
23259;DHT22;11798;51.528;7.240;2023-02-28T18:29:29;2.50;99.90
23259;DHT22;11798;51.528;7.240;2023-02-28T18:31:56;2.40;99.90
23259;DHT22;11798;51.528;7.240;2023-02-28T18:34:22;2.30;99.90
23259;DHT22;11798;51.528;7.240;2023-02-28T18:36:48;2.30;99.90
23259;DHT22;11798;51.528;7.240;2023-02-28T18:39:16;2.30;99.90
23259;DHT22;11798;51.528;7.240;2023-02-28T18:41:42;2.30;99.90
23259;DHT22;11798;51.528;7.240;2023-02-28T18:44:08;2.20;99.90
23259;DHT22;11798;51.528;7.240;2023-02-28T18:46:34;2.10;99.90